createdAt,value
2022-12-27T00:00:30.657Z,5.9
2022-12-27T00:08:02.955Z,5.6
2022-12-27T00:15:35.281Z,7.0
2022-12-27T00:23:07.566Z,5.6
2022-12-27T00:30:39.883Z,6.5
2022-12-27T00:38:12.192Z,7.1
2022-12-27T00:45:44.529Z,5.0
2022-12-27T00:53:16.855Z,5.6
2022-12-27T01:00:49.163Z,6.1
2022-12-27T01:08:21.496Z,4.8
2022-12-27T01:15:53.769Z,4.4
2022-12-27T01:23:26.065Z,4.5
2022-12-27T01:30:58.364Z,4.0
2022-12-27T01:38:30.645Z,3.8
2022-12-27T01:46:02.927Z,4.8
2022-12-27T01:53:35.295Z,4.6
2022-12-27T02:01:07.627Z,4.8
2022-12-27T02:08:39.973Z,4.3
2022-12-27T02:16:12.312Z,4.9
2022-12-27T02:23:44.597Z,5.4
2022-12-27T02:31:16.950Z,4.8
2022-12-27T02:38:49.299Z,4.4
2022-12-27T02:46:22.001Z,4.6
2022-12-27T02:53:54.562Z,4.1
2022-12-27T03:01:26.957Z,5.0
2022-12-27T03:08:59.292Z,4.4
2022-12-27T03:16:31.606Z,4.0
2022-12-27T03:24:03.927Z,4.0
2022-12-27T03:31:36.250Z,4.3
2022-12-27T03:39:08.537Z,3.1
2022-12-27T03:46:40.881Z,3.6
2022-12-27T03:54:13.230Z,3.4
2022-12-27T04:01:45.609Z,3.2
2022-12-27T04:09:18.032Z,2.8
2022-12-27T04:16:50.318Z,3.6
2022-12-27T04:24:22.650Z,3.5
2022-12-27T04:31:54.963Z,4.1
2022-12-27T04:39:27.261Z,3.3
2022-12-27T04:46:59.579Z,3.8
2022-12-27T04:54:31.900Z,2.8
2022-12-27T05:02:04.376Z,2.4
2022-12-27T05:09:36.837Z,2.5
2022-12-27T05:17:09.127Z,2.9
2022-12-27T05:24:41.466Z,3.3
2022-12-27T05:32:14.080Z,4.4
2022-12-27T05:39:46.440Z,3.9
2022-12-27T05:47:18.732Z,3.2
2022-12-27T05:54:51.499Z,3.0
2022-12-27T05:58:01.053Z,3.3
2022-12-27T05:58:48.324Z,5.4
2022-12-27T05:59:35.645Z,4.1
2022-12-27T06:00:22.964Z,5.1
2022-12-27T06:01:10.288Z,8.4
2022-12-27T06:01:57.811Z,4.0
2022-12-27T06:02:45.381Z,9.4
2022-12-27T06:03:32.895Z,5.0
2022-12-27T06:04:20.624Z,7.9
2022-12-27T06:05:07.926Z,9.7
2022-12-27T06:05:55.209Z,9.8
2022-12-27T06:06:42.521Z,5.8
2022-12-27T06:07:29.802Z,4.5
2022-12-27T06:08:17.113Z,6.5
2022-12-27T06:09:04.390Z,7.2
2022-12-27T06:09:51.709Z,4.7
2022-12-27T06:10:39.211Z,6.8
2022-12-27T06:11:26.542Z,7.0
2022-12-27T06:12:13.923Z,6.8
2022-12-27T06:13:01.231Z,12.2
2022-12-27T06:13:48.505Z,8.3
2022-12-27T06:14:35.943Z,14.7
2022-12-27T06:15:23.264Z,11.4
2022-12-27T06:16:10.625Z,16.3
2022-12-27T06:16:57.954Z,13.5
2022-12-27T06:17:45.318Z,27.3
2022-12-27T06:18:32.663Z,15.8
2022-12-27T06:19:20.014Z,17.4
2022-12-27T06:20:07.343Z,10.7
2022-12-27T06:20:54.653Z,11.5
2022-12-27T06:21:41.994Z,11.4
2022-12-27T06:22:29.288Z,9.0
2022-12-27T06:23:16.601Z,9.4
2022-12-27T06:24:03.981Z,8.1
2022-12-27T06:24:51.290Z,17.7
2022-12-27T06:25:38.637Z,15.6
2022-12-27T06:26:26.003Z,23.5
2022-12-27T06:27:13.303Z,15.8
2022-12-27T06:28:00.602Z,16.7
2022-12-27T06:28:47.988Z,24.2
2022-12-27T06:29:35.270Z,23.5
2022-12-27T06:30:22.596Z,19.6
2022-12-27T06:31:09.915Z,15.9
2022-12-27T06:31:57.290Z,14.0
2022-12-27T06:32:44.631Z,13.5
2022-12-27T06:33:31.937Z,33.9
2022-12-27T06:34:19.253Z,16.8
2022-12-27T06:35:07.079Z,34.2
2022-12-27T06:35:54.399Z,39.7
2022-12-27T06:36:41.962Z,77.0
2022-12-27T06:37:29.280Z,105.0
2022-12-27T06:38:16.612Z,79.5
2022-12-27T06:39:03.911Z,76.0
2022-12-27T06:39:51.201Z,67.2
2022-12-27T06:40:38.528Z,33.7
2022-12-27T06:41:25.887Z,19.3
2022-12-27T06:42:13.200Z,34.6
2022-12-27T06:43:00.522Z,26.2
2022-12-27T06:43:47.882Z,39.0
2022-12-27T06:44:35.217Z,25.8
2022-12-27T06:45:22.529Z,38.0
2022-12-27T06:46:15.201Z,96.6
2022-12-27T06:47:04.576Z,126.3
2022-12-27T06:47:51.948Z,140.6
2022-12-27T06:48:39.285Z,149.5
2022-12-27T06:49:26.619Z,115.0
2022-12-27T06:50:13.959Z,77.9
2022-12-27T06:51:01.265Z,74.1
2022-12-27T06:51:52.611Z,50.0
2022-12-27T06:52:43.091Z,57.5
2022-12-27T06:53:30.489Z,38.4
2022-12-27T06:54:17.817Z,62.4
2022-12-27T06:55:05.169Z,119.5
2022-12-27T06:55:52.549Z,156.5
2022-12-27T06:56:39.847Z,179.6
2022-12-27T06:57:27.142Z,175.8
2022-12-27T06:58:14.546Z,150.8
2022-12-27T06:59:01.931Z,96.5
2022-12-27T06:59:53.818Z,94.6
2022-12-27T07:00:41.500Z,22.9
2022-12-27T07:01:29.066Z,14.7
2022-12-27T07:02:16.592Z,10.2
2022-12-27T07:03:04.077Z,12.9
2022-12-27T07:03:51.450Z,32.5
2022-12-27T07:04:38.881Z,26.8
2022-12-27T07:05:26.191Z,19.0
2022-12-27T07:06:13.660Z,17.7
2022-12-27T07:07:01.007Z,12.3
2022-12-27T07:07:48.300Z,10.8
2022-12-27T07:08:35.767Z,10.9
2022-12-27T07:09:23.053Z,9.1
2022-12-27T07:10:10.338Z,9.1
2022-12-27T07:10:57.779Z,9.6
2022-12-27T07:11:45.093Z,14.3
2022-12-27T07:12:36.681Z,14.6
2022-12-27T07:13:24.337Z,11.0
2022-12-27T07:14:11.701Z,14.7
2022-12-27T07:14:59.012Z,14.7
2022-12-27T07:15:46.338Z,12.2
2022-12-27T07:16:33.782Z,34.2
2022-12-27T07:17:21.094Z,91.5
2022-12-27T07:18:08.397Z,112.9
2022-12-27T07:18:55.829Z,137.0
2022-12-27T07:19:43.186Z,139.1
2022-12-27T07:20:30.527Z,113.8
2022-12-27T07:21:17.957Z,80.0
2022-12-27T07:22:05.560Z,91.0
2022-12-27T07:22:52.921Z,59.9
2022-12-27T07:23:40.347Z,56.3
2022-12-27T07:24:27.696Z,46.0
2022-12-27T07:25:15.004Z,51.1
2022-12-27T07:26:02.466Z,33.3
2022-12-27T07:26:49.777Z,24.9
2022-12-27T07:27:37.094Z,23.0
2022-12-27T07:28:24.520Z,18.9
2022-12-27T07:29:11.809Z,31.3
2022-12-27T07:29:59.136Z,21.5
2022-12-27T07:30:46.566Z,25.7
2022-12-27T07:31:33.925Z,14.3
2022-12-27T07:32:21.328Z,16.1
2022-12-27T07:33:08.765Z,15.7
2022-12-27T07:33:56.072Z,16.8
2022-12-27T07:34:43.357Z,17.0
2022-12-27T07:35:30.786Z,21.0
2022-12-27T07:36:18.121Z,11.1
2022-12-27T07:37:05.418Z,22.1
2022-12-27T07:37:52.829Z,15.3
2022-12-27T07:38:40.142Z,15.6
2022-12-27T07:39:27.479Z,11.1
2022-12-27T07:40:14.894Z,13.5
2022-12-27T07:41:02.229Z,15.6
2022-12-27T07:41:49.557Z,13.6
2022-12-27T07:42:36.951Z,18.9
2022-12-27T07:43:24.229Z,18.0
2022-12-27T07:44:11.524Z,18.2
2022-12-27T07:44:58.938Z,11.5
2022-12-27T07:45:46.260Z,12.1
2022-12-27T07:46:33.633Z,18.4
2022-12-27T07:47:21.039Z,12.4
2022-12-27T07:48:08.326Z,20.1
2022-12-27T07:48:55.623Z,13.8
2022-12-27T07:49:43.074Z,19.5
2022-12-27T07:50:30.433Z,23.3
2022-12-27T07:51:17.774Z,21.3
2022-12-27T07:52:05.188Z,24.6
2022-12-27T07:52:52.551Z,16.7
2022-12-27T07:53:39.880Z,27.0
2022-12-27T07:54:27.308Z,30.8
2022-12-27T07:55:14.642Z,31.9
2022-12-27T07:56:01.938Z,32.3
2022-12-27T07:56:49.411Z,37.3
2022-12-27T07:57:36.729Z,38.3
2022-12-27T07:58:24.061Z,41.3
2022-12-27T07:59:11.490Z,23.4
2022-12-27T07:59:58.795Z,27.4
2022-12-27T08:00:46.132Z,30.0
2022-12-27T08:01:33.591Z,24.3
2022-12-27T08:02:20.998Z,19.1
2022-12-27T08:03:08.376Z,21.9
2022-12-27T08:03:56.006Z,20.1
2022-12-27T08:04:43.303Z,23.3
2022-12-27T08:05:30.609Z,14.5
2022-12-27T08:06:18.016Z,18.2
2022-12-27T08:07:05.371Z,12.2
2022-12-27T08:07:52.709Z,20.7
2022-12-27T08:08:40.052Z,14.6
2022-12-27T08:09:27.384Z,15.0
2022-12-27T08:10:14.738Z,14.6
2022-12-27T08:11:05.543Z,27.9
2022-12-27T08:11:53.303Z,11.9
2022-12-27T08:12:40.587Z,12.5
2022-12-27T08:13:27.916Z,16.8
2022-12-27T08:14:15.214Z,21.2
2022-12-27T08:15:02.608Z,13.9
2022-12-27T08:15:49.911Z,19.0
2022-12-27T08:16:37.221Z,8.7
2022-12-27T08:17:24.608Z,20.9
2022-12-27T08:18:11.900Z,17.9
2022-12-27T08:19:03.353Z,10.1
2022-12-27T08:19:55.408Z,8.9
2022-12-27T08:20:42.785Z,11.3
2022-12-27T08:21:30.074Z,23.5
2022-12-27T08:22:17.369Z,14.0
2022-12-27T08:23:04.795Z,10.8
2022-12-27T08:23:52.093Z,12.1
2022-12-27T08:24:39.386Z,15.9
2022-12-27T08:25:26.776Z,16.1
2022-12-27T08:26:14.082Z,12.0
2022-12-27T08:27:01.409Z,10.5
2022-12-27T08:27:48.791Z,8.3
2022-12-27T08:28:36.121Z,15.4
2022-12-27T08:29:23.462Z,14.1
2022-12-27T08:30:10.875Z,6.6
2022-12-27T08:30:58.279Z,8.4
2022-12-27T08:31:45.667Z,8.9
2022-12-27T08:32:32.999Z,12.7
2022-12-27T08:33:20.285Z,8.6
2022-12-27T08:34:07.591Z,9.1
2022-12-27T08:34:55.033Z,8.7
2022-12-27T08:35:52.854Z,8.8
2022-12-27T08:36:56.234Z,10.1
2022-12-27T08:37:37.059Z,8.2
2022-12-27T08:38:24.413Z,8.3
2022-12-27T08:39:11.703Z,10.1
2022-12-27T08:40:02.652Z,11.3
2022-12-27T08:40:50.526Z,18.1
2022-12-27T08:41:37.910Z,7.5
2022-12-27T08:42:25.184Z,7.3
2022-12-27T08:43:12.477Z,10.5
2022-12-27T08:43:59.867Z,15.8
2022-12-27T08:44:47.188Z,13.5
2022-12-27T08:45:34.557Z,24.9
2022-12-27T08:46:22.035Z,38.9
2022-12-27T08:47:09.404Z,43.8
2022-12-27T08:47:56.754Z,45.6
2022-12-27T08:48:44.107Z,32.4
2022-12-27T08:49:31.389Z,22.6
2022-12-27T08:50:18.698Z,21.5
2022-12-27T08:51:12.132Z,22.2
2022-12-27T08:52:01.057Z,19.5
2022-12-27T08:52:48.496Z,16.2
2022-12-27T08:53:35.781Z,25.6
2022-12-27T08:54:23.069Z,17.0
2022-12-27T08:55:10.482Z,13.4
2022-12-27T08:55:57.769Z,13.9
2022-12-27T08:56:45.096Z,12.6
2022-12-27T08:57:32.516Z,10.1
2022-12-27T08:58:19.831Z,11.0
2022-12-27T08:59:07.210Z,12.0
2022-12-27T08:59:54.562Z,12.2
2022-12-27T09:00:41.883Z,17.8
2022-12-27T09:01:29.331Z,28.1
2022-12-27T09:02:16.848Z,9.0
2022-12-27T09:03:04.359Z,7.6
2022-12-27T09:03:51.687Z,12.3
2022-12-27T09:04:39.011Z,10.2
2022-12-27T09:05:26.303Z,8.5
2022-12-27T09:06:13.614Z,9.0
2022-12-27T09:07:01.158Z,11.1
2022-12-27T09:07:48.490Z,13.1
2022-12-27T09:08:35.826Z,6.9
2022-12-27T09:09:23.157Z,8.0
2022-12-27T09:10:10.467Z,6.3
2022-12-27T09:10:57.757Z,8.0
2022-12-27T09:11:45.050Z,12.6
2022-12-27T09:12:32.415Z,7.3
2022-12-27T09:13:19.718Z,7.1
2022-12-27T09:14:07.022Z,6.8
2022-12-27T09:14:54.359Z,16.2
2022-12-27T09:15:41.726Z,9.3
2022-12-27T09:16:29.034Z,10.5
2022-12-27T09:17:16.377Z,9.4
2022-12-27T09:18:03.678Z,6.6
2022-12-27T09:18:51.007Z,16.3
2022-12-27T09:19:38.447Z,7.8
2022-12-27T09:20:25.749Z,6.6
2022-12-27T09:21:13.102Z,8.5
2022-12-27T09:22:00.403Z,10.9
2022-12-27T09:22:47.736Z,5.7
2022-12-27T09:23:35.026Z,8.6
2022-12-27T09:24:22.358Z,6.4
2022-12-27T09:25:09.727Z,12.5
2022-12-27T09:25:57.029Z,5.4
2022-12-27T09:26:44.328Z,9.2
2022-12-27T09:27:31.643Z,9.3
2022-12-27T09:28:18.930Z,14.1
2022-12-27T09:29:06.245Z,9.2
2022-12-27T09:29:53.618Z,8.3
2022-12-27T09:30:40.978Z,11.3
2022-12-27T09:31:28.376Z,7.5
2022-12-27T09:32:15.708Z,6.1
2022-12-27T09:33:02.985Z,7.9
2022-12-27T09:33:50.269Z,11.5
2022-12-27T09:34:37.537Z,8.7
2022-12-27T09:35:24.820Z,6.5
2022-12-27T09:36:12.102Z,8.8
2022-12-27T09:36:59.428Z,6.8
2022-12-27T09:37:46.728Z,7.2
2022-12-27T09:38:34.002Z,8.5
2022-12-27T09:39:21.290Z,9.9
2022-12-27T09:40:08.685Z,7.4
2022-12-27T09:40:56.001Z,8.0
2022-12-27T09:42:56.912Z,8.1
2022-12-27T09:43:37.798Z,6.0
2022-12-27T09:44:25.191Z,6.7
2022-12-27T09:45:13.028Z,11.1
2022-12-27T09:46:00.379Z,6.2
2022-12-27T09:46:47.752Z,5.5
2022-12-27T09:47:35.063Z,14.4
2022-12-27T09:48:26.184Z,6.5
2022-12-27T09:49:16.620Z,8.6
2022-12-27T09:50:04.041Z,8.0
2022-12-27T09:50:51.335Z,10.8
2022-12-27T09:51:38.664Z,12.7
2022-12-27T09:52:25.993Z,14.4
2022-12-27T09:53:13.318Z,13.4
2022-12-27T09:54:00.635Z,10.7
2022-12-27T09:54:47.986Z,11.5
2022-12-27T09:55:35.320Z,10.4
2022-12-27T09:56:22.642Z,10.4
2022-12-27T09:57:19.858Z,9.7
2022-12-27T09:58:07.248Z,9.2
2022-12-27T09:58:54.668Z,13.5
2022-12-27T09:59:41.946Z,9.6
2022-12-27T10:00:35.195Z,8.1
2022-12-27T10:01:23.966Z,7.9
2022-12-27T10:02:11.493Z,7.4
2022-12-27T10:02:58.946Z,7.7
2022-12-27T10:03:46.251Z,8.5
2022-12-27T10:05:00.864Z,7.3
2022-12-27T10:05:30.877Z,11.2
2022-12-27T10:06:18.210Z,8.9
2022-12-27T10:07:05.571Z,6.2
2022-12-27T10:07:52.873Z,9.8
2022-12-27T10:08:40.310Z,11.4
2022-12-27T10:09:27.648Z,8.8
2022-12-27T10:10:14.974Z,7.5
2022-12-27T10:11:02.341Z,6.3
2022-12-27T10:11:49.648Z,7.9
2022-12-27T10:12:37.162Z,6.6
2022-12-27T10:13:24.575Z,9.1
2022-12-27T10:14:11.879Z,6.4
2022-12-27T10:14:59.209Z,6.6
2022-12-27T10:15:47.026Z,6.3
2022-12-27T10:16:34.577Z,5.8
2022-12-27T10:17:22.012Z,10.2
2022-12-27T10:18:09.333Z,6.3
2022-12-27T10:18:56.682Z,6.4
2022-12-27T10:19:43.999Z,6.6
2022-12-27T10:20:31.302Z,6.4
2022-12-27T10:21:19.175Z,6.6
2022-12-27T10:22:06.796Z,5.9
2022-12-27T10:22:54.081Z,6.1
2022-12-27T10:23:41.412Z,5.1
2022-12-27T10:24:28.781Z,8.9
2022-12-27T10:25:16.091Z,6.8
2022-12-27T10:26:03.463Z,5.8
2022-12-27T10:26:50.813Z,5.2
2022-12-27T10:27:38.141Z,5.0
2022-12-27T10:28:25.425Z,6.0
2022-12-27T10:29:12.839Z,5.3
2022-12-27T10:30:00.361Z,5.8
2022-12-27T10:30:47.688Z,5.1
2022-12-27T10:31:35.140Z,8.8
2022-12-27T10:32:22.561Z,10.5
2022-12-27T10:33:09.875Z,4.6
2022-12-27T10:33:57.280Z,5.0
2022-12-27T10:34:44.592Z,5.6
2022-12-27T10:35:31.902Z,8.8
2022-12-27T10:36:19.317Z,6.1
2022-12-27T10:37:06.619Z,7.2
2022-12-27T10:37:53.990Z,11.7
2022-12-27T10:38:41.334Z,4.9
2022-12-27T10:39:28.696Z,5.0
2022-12-27T10:40:16.002Z,5.0
2022-12-27T10:41:03.417Z,4.4
2022-12-27T10:41:50.958Z,5.1
2022-12-27T10:42:38.237Z,8.8
2022-12-27T10:43:25.625Z,4.7
2022-12-27T10:44:12.975Z,4.8
2022-12-27T10:45:00.287Z,6.6
2022-12-27T10:45:47.654Z,5.5
2022-12-27T10:46:35.012Z,10.9
2022-12-27T10:47:22.334Z,6.2
2022-12-27T10:48:09.710Z,7.0
2022-12-27T10:49:22.269Z,5.0
2022-12-27T10:49:54.234Z,6.4
2022-12-27T10:50:41.635Z,7.2
2022-12-27T10:51:28.973Z,8.5
2022-12-27T10:52:16.266Z,9.0
2022-12-27T10:53:03.703Z,6.0
2022-12-27T10:53:51.035Z,8.6
2022-12-27T10:54:38.325Z,8.5
2022-12-27T10:55:25.780Z,8.9
2022-12-27T10:56:13.263Z,8.0
2022-12-27T10:57:00.591Z,7.2
2022-12-27T10:57:47.959Z,8.3
2022-12-27T10:58:35.251Z,7.2
2022-12-27T10:59:22.551Z,8.1
2022-12-27T11:06:54.901Z,11.2
2022-12-27T11:14:27.237Z,12.4
2022-12-27T11:21:59.546Z,6.0
2022-12-27T11:29:31.901Z,5.4
2022-12-27T11:37:04.216Z,7.0
2022-12-27T11:44:36.518Z,7.0
2022-12-27T11:48:56.146Z,6.2
2022-12-27T11:49:43.478Z,8.4
2022-12-27T11:50:30.765Z,6.8
2022-12-27T11:51:18.096Z,13.3
2022-12-27T11:52:05.412Z,23.4
2022-12-27T11:52:52.743Z,9.0
2022-12-27T11:53:40.034Z,7.6
2022-12-27T11:54:27.364Z,8.8
2022-12-27T11:55:14.642Z,26.2
2022-12-27T11:56:01.957Z,9.1
2022-12-27T11:56:49.252Z,11.7
2022-12-27T11:57:36.567Z,7.5
2022-12-27T11:58:23.885Z,10.0
2022-12-27T11:59:11.204Z,11.9
2022-12-27T11:59:58.565Z,7.0
2022-12-27T12:00:45.897Z,8.2
2022-12-27T12:01:33.298Z,7.7
2022-12-27T12:02:20.655Z,9.6
2022-12-27T12:03:08.018Z,7.4
2022-12-27T12:03:55.323Z,7.5
2022-12-27T12:04:42.597Z,8.0
2022-12-27T12:05:30.027Z,6.8
2022-12-27T12:06:17.321Z,9.2
2022-12-27T12:07:04.624Z,7.8
2022-12-27T12:07:51.948Z,9.1
2022-12-27T12:08:39.238Z,14.2
2022-12-27T12:09:26.528Z,14.8
2022-12-27T12:10:13.919Z,19.0
2022-12-27T12:11:01.294Z,19.4
2022-12-27T12:11:54.503Z,18.8
2022-12-27T12:12:42.357Z,16.9
2022-12-27T12:13:29.756Z,20.6
2022-12-27T12:14:17.099Z,17.7
2022-12-27T12:15:04.386Z,17.9
2022-12-27T12:15:51.822Z,19.1
2022-12-27T12:16:39.173Z,15.1
2022-12-27T12:17:31.083Z,15.4
2022-12-27T12:18:21.383Z,16.5
2022-12-27T12:19:08.738Z,16.6
2022-12-27T12:19:56.029Z,16.7
2022-12-27T12:20:48.778Z,17.6
2022-12-27T12:21:37.978Z,15.6
2022-12-27T12:22:25.415Z,12.0
2022-12-27T12:23:12.709Z,15.6
2022-12-27T12:24:00.049Z,13.2
2022-12-27T12:24:47.493Z,11.9
2022-12-27T12:25:34.792Z,11.7
2022-12-27T12:26:22.116Z,12.1
2022-12-27T12:27:09.506Z,10.8
2022-12-27T12:27:56.795Z,13.3
2022-12-27T12:29:00.522Z,10.2
2022-12-27T12:29:41.401Z,10.0
2022-12-27T12:30:28.809Z,9.1
2022-12-27T12:31:16.168Z,8.7
2022-12-27T12:32:03.551Z,9.4
2022-12-27T12:32:50.931Z,7.9
2022-12-27T12:33:38.215Z,8.9
2022-12-27T12:34:25.491Z,8.2
2022-12-27T12:35:12.935Z,7.8
2022-12-27T12:36:00.260Z,7.9
2022-12-27T12:36:52.298Z,9.7
2022-12-27T12:37:40.070Z,11.4
2022-12-27T12:38:27.459Z,7.5
2022-12-27T12:39:14.733Z,8.0
2022-12-27T12:40:02.072Z,6.2
2022-12-27T12:40:49.472Z,11.7
2022-12-27T12:41:36.763Z,7.5
2022-12-27T12:42:24.039Z,6.4
2022-12-27T12:43:11.417Z,7.5
2022-12-27T12:43:58.699Z,7.4
2022-12-27T12:44:45.980Z,7.9
2022-12-27T12:45:33.435Z,5.6
2022-12-27T12:46:20.860Z,7.5
2022-12-27T12:47:08.159Z,6.7
2022-12-27T12:47:55.515Z,5.9
2022-12-27T12:48:42.859Z,8.8
2022-12-27T12:49:30.193Z,9.1
2022-12-27T12:50:17.562Z,10.4
2022-12-27T12:51:04.891Z,8.6
2022-12-27T12:51:52.222Z,11.0
2022-12-27T12:52:39.587Z,10.5
2022-12-27T12:53:26.879Z,8.7
2022-12-27T12:54:14.204Z,8.7
2022-12-27T12:55:01.569Z,9.0
2022-12-27T12:55:48.845Z,8.0
2022-12-27T12:56:36.122Z,9.3
2022-12-27T12:57:23.563Z,10.6
2022-12-27T12:58:10.854Z,8.8
2022-12-27T12:58:58.164Z,6.9
2022-12-27T12:59:45.578Z,6.3
2022-12-27T13:00:32.903Z,10.2
2022-12-27T13:01:20.313Z,7.0
2022-12-27T13:02:07.810Z,8.5
2022-12-27T13:02:55.378Z,7.3
2022-12-27T13:03:42.734Z,8.0
2022-12-27T13:04:30.049Z,6.4
2022-12-27T13:05:17.338Z,6.8
2022-12-27T13:06:04.796Z,6.5
2022-12-27T13:13:37.091Z,8.3
2022-12-27T13:21:09.373Z,7.1
2022-12-27T13:28:41.690Z,6.3
2022-12-27T13:36:14.004Z,6.1
2022-12-27T13:43:46.297Z,6.2
2022-12-27T13:51:18.618Z,6.2
2022-12-27T13:58:56.226Z,6.5
2022-12-27T14:06:31.683Z,6.1
2022-12-27T14:14:04.030Z,10.1
2022-12-27T14:21:36.359Z,5.4
2022-12-27T14:29:08.681Z,6.8
2022-12-27T14:36:40.973Z,4.9
2022-12-27T14:44:13.262Z,8.5
2022-12-27T14:52:03.643Z,6.3
2022-12-27T14:59:27.999Z,5.4
2022-12-27T15:07:00.325Z,6.5
2022-12-27T15:14:32.638Z,6.1
2022-12-27T15:22:04.983Z,6.3
2022-12-27T15:29:37.279Z,6.2
2022-12-27T15:37:09.595Z,6.6
2022-12-27T15:44:41.931Z,6.3
2022-12-27T15:52:14.320Z,6.2
2022-12-27T15:59:46.676Z,5.5
2022-12-27T16:07:19.040Z,4.3
2022-12-27T16:14:51.339Z,3.8
2022-12-27T16:22:23.635Z,3.3
2022-12-27T16:29:55.917Z,5.0
2022-12-27T16:37:28.202Z,7.2
2022-12-27T16:45:00.481Z,4.6
2022-12-27T16:52:32.746Z,5.6
2022-12-27T17:00:05.062Z,4.7
2022-12-27T17:07:37.360Z,5.1
2022-12-27T17:15:09.681Z,4.5
2022-12-27T17:22:41.970Z,4.6
2022-12-27T17:30:14.535Z,5.4
2022-12-27T17:37:47.159Z,3.4
2022-12-27T17:45:19.489Z,3.7
2022-12-27T17:52:51.826Z,3.1
2022-12-27T18:00:24.139Z,4.3
2022-12-27T18:07:56.472Z,3.3
2022-12-27T18:15:28.835Z,3.4
2022-12-27T18:23:01.229Z,4.1
2022-12-27T18:30:33.662Z,3.3
2022-12-27T18:38:05.972Z,5.3
2022-12-27T18:45:38.333Z,4.2
2022-12-27T18:53:10.727Z,4.0
2022-12-27T19:00:43.036Z,4.3
2022-12-27T19:08:15.372Z,2.7
2022-12-27T19:15:47.718Z,2.4
2022-12-27T19:23:20.025Z,3.7
2022-12-27T19:30:52.353Z,2.2
2022-12-27T19:38:24.682Z,2.8
2022-12-27T19:45:57.030Z,3.0
2022-12-27T19:53:29.369Z,3.5
2022-12-27T20:01:01.749Z,2.3
2022-12-27T20:08:34.048Z,2.6
2022-12-27T20:16:06.420Z,2.6
2022-12-27T20:23:38.769Z,3.2
2022-12-27T20:31:11.089Z,2.4
2022-12-27T20:38:43.395Z,2.6
2022-12-27T20:46:15.705Z,3.2
2022-12-27T20:53:48.022Z,1.9
2022-12-27T21:01:20.470Z,5.1
2022-12-27T21:08:57.154Z,2.7
2022-12-27T21:16:30.150Z,2.7
2022-12-27T21:24:02.436Z,2.5
2022-12-27T21:31:34.724Z,2.4
2022-12-27T21:39:07.025Z,2.5
2022-12-27T21:46:39.370Z,2.4
2022-12-27T21:54:11.734Z,2.3
2022-12-27T22:01:49.714Z,2.4
2022-12-27T22:09:23.392Z,2.2
2022-12-27T22:16:55.725Z,2.7
2022-12-27T22:24:28.080Z,2.5
2022-12-27T22:32:00.394Z,1.1
2022-12-27T22:39:32.723Z,1.6
2022-12-27T22:55:05.843Z,2.2
2022-12-27T23:02:29.618Z,2.5
2022-12-27T23:10:01.984Z,1.7
2022-12-27T23:17:34.292Z,2.3
2022-12-27T23:25:06.580Z,1.9
2022-12-27T23:32:38.887Z,1.2
2022-12-27T23:40:11.172Z,1.7
2022-12-27T23:47:43.485Z,1.7
2022-12-27T23:55:15.812Z,1.2
